Time;durP1;ratioP1;P1;durP2;ratioP2;P2;SDS_P1;SDS_P2;PMS_P1;PMS_P2;Temp;Humidity;BMP_temperature;BMP_pressure;BME280_temperature;BME280_humidity;BME280_pressure;Samples;Min_cycle;Max_cycle;Signal;HPM_P1;HPM_P2
2022/06/20 00:01:36;;;;;;;5.38;1.50;;;14.20;99.90;;;;;;5094536;28;20525;-69
2022/06/20 00:04:02;;;;;;;5.55;2.10;;;14.10;99.90;;;;;;5093511;28;20040;-69
2022/06/20 00:06:28;;;;;;;5.03;1.73;;;14.10;99.90;;;;;;5095064;28;20032;-69
2022/06/20 00:08:55;;;;;;;7.00;1.92;;;14.20;99.90;;;;;;5094682;28;20512;-69
2022/06/20 00:11:34;;;;;;;12.93;2.47;;;14.20;99.90;;;;;;5094564;28;20043;-69
2022/06/20 00:14:00;;;;;;;5.30;1.70;;;14.10;99.90;;;;;;5093522;28;20063;-69
2022/06/20 00:16:25;;;;;;;7.10;2.13;;;14.20;99.90;;;;;;5094640;28;20036;-69
2022/06/20 00:18:52;;;;;;;4.57;1.80;;;14.10;99.90;;;;;;5094682;28;20036;-69
2022/06/20 00:21:21;;;;;;;8.27;1.83;;;14.10;99.90;;;;;;5092705;28;20068;-69
2022/06/20 00:23:46;;;;;;;9.43;2.10;;;14.10;99.90;;;;;;5094616;28;20036;-69
2022/06/20 00:26:13;;;;;;;7.00;2.47;;;14.10;99.90;;;;;;5093170;28;20127;-69
2022/06/20 00:28:39;;;;;;;10.68;2.30;;;14.10;99.90;;;;;;5092922;28;20043;-69
2022/06/20 00:31:05;;;;;;;5.35;2.22;;;14.10;99.90;;;;;;5093947;28;20409;-69
2022/06/20 00:33:31;;;;;;;7.30;1.92;;;14.10;99.90;;;;;;5094521;28;20040;-69
2022/06/20 00:35:58;;;;;;;8.60;1.95;;;14.10;99.90;;;;;;5094442;28;20509;-69
2022/06/20 00:38:24;;;;;;;5.30;2.05;;;14.10;99.90;;;;;;5094258;28;20055;-69
2022/06/20 00:40:53;;;;;;;7.28;1.83;;;14.00;99.90;;;;;;5093904;28;20040;-69
2022/06/20 00:43:36;;;;;;;8.15;1.73;;;14.00;99.90;;;;;;5094044;28;20417;-69
2022/06/20 00:46:07;;;;;;;9.82;2.13;;;14.00;99.90;;;;;;5094418;28;20055;-69
2022/06/20 00:48:52;;;;;;;10.25;2.25;;;14.00;99.90;;;;;;5094044;28;20039;-70
2022/06/20 00:51:45;;;;;;;4.78;1.88;;;13.90;99.90;;;;;;5093739;28;20165;-69
2022/06/20 00:54:21;;;;;;;6.97;2.28;;;14.00;99.90;;;;;;5093905;28;20051;-69
2022/06/20 00:56:56;;;;;;;7.45;2.35;;;14.00;99.90;;;;;;5094112;28;20040;-70
2022/06/20 00:59:33;;;;;;;4.80;1.80;;;13.90;99.90;;;;;;5093920;28;20040;-69
2022/06/20 01:02:00;;;;;;;8.73;1.83;;;14.00;99.90;;;;;;5093445;28;20115;-70
2022/06/20 01:04:52;;;;;;;8.07;2.08;;;13.90;99.90;;;;;;5093642;28;20043;-69
2022/06/20 01:07:28;;;;;;;7.07;1.88;;;14.00;99.90;;;;;;5093890;28;20089;-69
2022/06/20 01:09:58;;;;;;;6.45;2.00;;;13.90;99.90;;;;;;5093511;28;20398;-69
2022/06/20 01:12:26;;;;;;;5.70;1.95;;;13.80;99.90;;;;;;5093484;28;20054;-69
2022/06/20 01:14:52;;;;;;;7.82;2.08;;;13.90;99.90;;;;;;5093503;28;20406;-69
2022/06/20 01:17:37;;;;;;;4.63;1.70;;;13.90;99.90;;;;;;5093662;28;20032;-69
2022/06/20 01:20:07;;;;;;;6.28;1.85;;;13.90;99.90;;;;;;5093266;28;20473;-69
2022/06/20 01:22:56;;;;;;;8.27;2.50;;;13.80;99.90;;;;;;5093395;28;20044;-69
2022/06/20 01:25:37;;;;;;;7.40;1.45;;;13.80;99.90;;;;;;5093273;28;20066;-70
2022/06/20 01:28:07;;;;;;;5.45;1.55;;;13.80;99.90;;;;;;5093370;28;20075;-69
2022/06/20 01:30:36;;;;;;;6.82;1.70;;;13.70;99.90;;;;;;5093091;28;20080;-69
2022/06/20 01:33:02;;;;;;;6.10;2.50;;;13.70;99.90;;;;;;5091263;28;20071;-69
2022/06/20 01:38:14;;;;;;;9.57;2.40;;;13.70;99.90;;;;;;5093196;28;20048;-69
2022/06/20 01:42:18;;;;;;;4.65;1.58;;;13.70;99.90;;;;;;5092803;28;20036;-69
2022/06/20 01:43:30;;;;;;;6.43;1.48;;;13.60;99.90;;;;;;5092888;28;20044;-69
2022/06/20 01:45:57;;;;;;;8.00;1.67;;;13.60;99.90;;;;;;5092932;28;20040;-70
2022/06/20 01:48:24;;;;;;;7.25;1.83;;;13.60;99.90;;;;;;5092858;28;20516;-69
2022/06/20 01:50:49;;;;;;;9.05;2.20;;;13.60;99.90;;;;;;5092616;28;20668;-70
2022/06/20 01:53:18;;;;;;;11.23;2.05;;;13.60;99.90;;;;;;5093008;28;20115;-69
2022/06/20 01:55:48;;;;;;;11.30;1.52;;;13.50;99.90;;;;;;5092784;28;20070;-69
2022/06/20 01:58:22;;;;;;;7.82;1.80;;;13.50;99.90;;;;;;5092724;28;20123;-70
2022/06/20 02:00:48;;;;;;;7.40;1.60;;;13.50;99.90;;;;;;5092245;28;20498;-69
2022/06/20 02:03:19;;;;;;;6.68;1.52;;;13.50;99.90;;;;;;5092829;28;20051;-69
2022/06/20 02:05:47;;;;;;;8.50;2.13;;;13.50;99.90;;;;;;5092492;28;20055;-69
2022/06/20 02:08:18;;;;;;;5.13;1.77;;;13.50;99.90;;;;;;5091245;28;20036;-69
2022/06/20 02:10:52;;;;;;;4.72;1.92;;;13.40;99.90;;;;;;5092380;28;20081;-69
2022/06/20 02:13:20;;;;;;;7.05;2.38;;;13.40;99.90;;;;;;5092474;28;20170;-69
2022/06/20 02:15:48;;;;;;;6.60;1.80;;;13.40;99.90;;;;;;5092693;28;20040;-69
2022/06/20 02:18:15;;;;;;;4.70;1.88;;;13.40;99.90;;;;;;5092419;28;20457;-69
2022/06/20 02:20:46;;;;;;;6.55;2.25;;;13.30;99.90;;;;;;5092028;28;20039;-69
2022/06/20 02:23:24;;;;;;;5.90;2.33;;;13.30;99.90;;;;;;5092541;28;20035;-69
2022/06/20 02:25:53;;;;;;;5.03;2.00;;;13.30;99.90;;;;;;5092294;28;20044;-69
2022/06/20 02:28:25;;;;;;;5.53;1.60;;;13.20;99.90;;;;;;5090829;28;20046;-69
2022/06/20 02:30:51;;;;;;;5.20;1.90;;;13.30;99.90;;;;;;5091963;28;20493;-69
2022/06/20 02:33:25;;;;;;;7.20;1.60;;;13.20;99.90;;;;;;5091129;28;20047;-69
2022/06/20 02:35:53;;;;;;;4.13;2.20;;;13.20;99.90;;;;;;5092220;28;20102;-69
2022/06/20 02:38:21;;;;;;;8.20;1.70;;;13.10;99.90;;;;;;5091949;28;20071;-69
2022/06/20 02:40:48;;;;;;;3.10;1.75;;;13.10;99.90;;;;;;5091807;28;20047;-69
2022/06/20 02:43:22;;;;;;;2.58;1.50;;;13.10;99.90;;;;;;5091912;28;20524;-69
2022/06/20 02:45:49;;;;;;;3.08;2.05;;;13.00;99.90;;;;;;5090954;28;20393;-69
2022/06/20 02:48:16;;;;;;;6.60;2.13;;;13.10;99.90;;;;;;5090639;28;20447;-69
2022/06/20 02:50:55;;;;;;;6.40;2.08;;;13.10;99.90;;;;;;5091581;28;20092;-69
2022/06/20 02:53:27;;;;;;;6.25;1.90;;;13.10;99.90;;;;;;5091944;28;20526;-70
2022/06/20 02:55:54;;;;;;;8.63;1.75;;;13.20;99.90;;;;;;5092003;28;20084;-68
2022/06/20 02:58:25;;;;;;;6.18;2.00;;;13.10;99.90;;;;;;5091907;28;20104;-69
2022/06/20 03:00:56;;;;;;;6.43;2.50;;;13.10;99.90;;;;;;5091535;28;20065;-69
2022/06/20 03:03:36;;;;;;;4.88;1.80;;;13.10;99.90;;;;;;5091844;28;20044;-69
2022/06/20 03:06:04;;;;;;;5.68;2.00;;;13.20;99.90;;;;;;5091783;28;20557;-69
2022/06/20 03:08:31;;;;;;;9.02;2.20;;;13.10;99.90;;;;;;5092005;28;20036;-69
2022/06/20 03:11:03;;;;;;;8.20;2.25;;;13.10;99.90;;;;;;5091515;28;20093;-69
2022/06/20 03:13:30;;;;;;;4.50;1.67;;;13.20;99.90;;;;;;5091686;28;20557;-69
2022/06/20 03:15:56;;;;;;;5.32;1.80;;;13.10;99.90;;;;;;5091499;28;20039;-69
2022/06/20 03:18:23;;;;;;;6.13;2.05;;;13.10;99.90;;;;;;5091804;28;20032;-69
2022/06/20 03:20:49;;;;;;;5.97;2.00;;;13.10;99.90;;;;;;5091410;28;20076;-69
2022/06/20 03:23:23;;;;;;;5.45;1.50;;;13.10;99.90;;;;;;5091610;28;20093;-69
2022/06/20 03:25:51;;;;;;;5.57;1.70;;;13.10;99.90;;;;;;5091554;28;20040;-69
2022/06/20 03:28:20;;;;;;;6.72;2.00;;;13.10;99.90;;;;;;5091296;28;20036;-69
2022/06/20 03:30:46;;;;;;;5.65;2.05;;;13.00;99.90;;;;;;5091448;28;20115;-69
2022/06/20 03:33:14;;;;;;;10.80;2.60;;;13.00;99.90;;;;;;5091669;28;20047;-69
2022/06/20 03:35:43;;;;;;;6.05;1.60;;;12.90;99.90;;;;;;5091626;28;20436;-69
2022/06/20 03:38:11;;;;;;;5.20;1.70;;;12.90;99.90;;;;;;5091519;28;20040;-69
2022/06/20 03:40:40;;;;;;;6.22;2.28;;;12.90;99.90;;;;;;5090991;28;20043;-69
2022/06/20 03:43:07;;;;;;;7.18;1.88;;;12.90;99.90;;;;;;5091683;28;20043;-69
2022/06/20 03:45:36;;;;;;;5.55;2.05;;;12.80;99.90;;;;;;5091580;28;20040;-69
2022/06/20 03:48:08;;;;;;;8.70;2.30;;;12.80;99.90;;;;;;5090202;28;20067;-69
2022/06/20 03:50:41;;;;;;;7.60;2.13;;;12.80;99.90;;;;;;5091007;28;20529;-69
2022/06/20 03:53:16;;;;;;;9.30;2.55;;;12.80;99.90;;;;;;5091247;28;20075;-69
2022/06/20 03:56:11;;;;;;;7.32;2.28;;;12.70;99.90;;;;;;5093107;28;20089;-69
2022/06/20 03:58:46;;;;;;;5.35;2.50;;;12.70;99.90;;;;;;5095111;28;20068;-69
2022/06/20 04:01:18;;;;;;;6.45;2.30;;;12.70;99.90;;;;;;5093664;28;20393;-69
2022/06/20 04:03:51;;;;;;;9.45;2.75;;;12.80;99.90;;;;;;5094917;28;20040;-69
2022/06/20 04:06:37;;;;;;;;;;;12.70;99.90;;;;;;5095549;28;20424;-69
2022/06/20 04:12:04;;;;;;;8.57;3.08;;;12.60;99.90;;;;;;5094489;28;20052;-69
2022/06/20 04:14:58;;;;;;;5.10;2.42;;;12.70;99.90;;;;;;5095027;28;20051;-70
2022/06/20 04:20:40;;;;;;;4.55;2.55;;;12.80;99.90;;;;;;5094207;28;20047;-69
2022/06/20 04:23:12;;;;;;;9.27;2.60;;;12.80;99.90;;;;;;5094690;28;20043;-69
2022/06/20 04:25:47;;;;;;;6.93;2.50;;;12.80;99.90;;;;;;5094660;28;20047;-69
2022/06/20 04:28:19;;;;;;;9.27;3.10;;;12.90;99.90;;;;;;5093056;28;20285;-69
2022/06/20 04:30:53;;;;;;;7.53;2.28;;;13.00;99.90;;;;;;5116531;22;20044;-79
2022/06/20 04:33:22;;;;;;;6.13;2.28;;;13.00;99.90;;;;;;5092849;28;20043;-79
2022/06/20 04:36:18;;;;;;;8.48;3.10;;;13.10;99.90;;;;;;5092979;28;20119;-79
2022/06/20 04:38:51;;;;;;;6.65;2.67;;;13.20;99.90;;;;;;5075524;28;20097;-78
2022/06/20 04:41:36;;;;;;;7.50;3.17;;;13.30;99.90;;;;;;5093098;28;20550;-79
2022/06/20 04:44:19;;;;;;;6.85;2.95;;;13.40;99.90;;;;;;5092972;28;20498;-79
2022/06/20 04:46:59;;;;;;;7.43;2.83;;;13.70;99.90;;;;;;5093020;28;20040;-78
2022/06/20 04:49:25;;;;;;;11.68;3.08;;;13.90;99.90;;;;;;5093939;28;20500;-79
2022/06/20 04:51:50;;;;;;;6.60;2.72;;;14.00;99.90;;;;;;5092246;28;20063;-79
2022/06/20 04:54:19;;;;;;;8.80;2.75;;;14.00;99.90;;;;;;5093864;28;20097;-79
2022/06/20 04:56:46;;;;;;;7.10;2.63;;;14.00;99.90;;;;;;5093302;28;20043;-78
2022/06/20 04:59:17;;;;;;;8.38;2.60;;;14.10;99.90;;;;;;5092773;28;20066;-77
2022/06/20 05:01:43;;;;;;;10.43;3.30;;;14.30;99.90;;;;;;5092626;28;20071;-79
2022/06/20 05:04:27;;;;;;;10.43;3.08;;;14.50;99.90;;;;;;5092848;28;20520;-78
2022/06/20 05:06:55;;;;;;;9.05;3.20;;;14.70;99.90;;;;;;5092624;28;20115;-77
2022/06/20 05:09:26;;;;;;;7.18;2.65;;;14.90;99.90;;;;;;5093655;28;20035;-77
2022/06/20 05:12:00;;;;;;;7.80;2.85;;;15.10;99.90;;;;;;5092305;28;20039;-78
2022/06/20 05:15:04;;;;;;;5.75;2.42;;;15.30;99.90;;;;;;5092300;28;20127;-77
2022/06/20 05:17:31;;;;;;;7.85;2.50;;;15.50;99.90;;;;;;5091863;28;20036;-77
2022/06/20 05:20:02;;;;;;;10.30;3.22;;;15.80;99.90;;;;;;5091561;28;20159;-79
2022/06/20 05:22:37;;;;;;;6.95;2.88;;;15.90;99.90;;;;;;5089306;28;20395;-77
2022/06/20 05:25:06;;;;;;;9.18;2.88;;;16.10;99.90;;;;;;5091525;28;20047;-78
2022/06/20 05:27:46;;;;;;;8.82;2.50;;;16.30;99.90;;;;;;5091634;28;20042;-78
2022/06/20 05:30:17;;;;;;;9.60;3.03;;;16.60;99.90;;;;;;5092934;28;20047;-78
2022/06/20 05:33:01;;;;;;;5.32;2.22;;;16.70;99.90;;;;;;5092062;28;20048;-78
2022/06/20 05:35:32;;;;;;;9.35;2.78;;;16.70;99.90;;;;;;5093142;28;20047;-76
2022/06/20 05:38:28;;;;;;;7.25;3.10;;;17.00;99.90;;;;;;5091678;28;20048;-77
2022/06/20 05:40:57;;;;;;;9.82;3.17;;;17.10;99.90;;;;;;5091358;28;20040;-77
2022/06/20 05:43:23;;;;;;;7.38;2.80;;;17.30;99.90;;;;;;5091544;28;20497;-77
2022/06/20 05:46:00;;;;;;;6.60;3.05;;;17.50;99.90;;;;;;5091529;28;20039;-77
2022/06/20 05:48:32;;;;;;;7.40;2.83;;;17.60;99.90;;;;;;5091967;28;20122;-76
2022/06/20 05:51:03;;;;;;;10.85;3.63;;;17.60;99.90;;;;;;5091193;28;20114;-76
2022/06/20 05:53:43;;;;;;;7.45;2.80;;;17.80;99.90;;;;;;5091485;28;20044;-77
2022/06/20 05:56:35;;;;;;;8.93;3.38;;;17.80;99.90;;;;;;5092785;28;20048;-76
2022/06/20 05:59:03;;;;;;;7.85;2.90;;;18.00;99.90;;;;;;5082819;28;20048;-77
2022/06/20 06:01:33;;;;;;;8.10;3.03;;;18.00;99.90;;;;;;5090967;28;20528;-77
2022/06/20 06:04:05;;;;;;;14.63;3.40;;;17.70;99.90;;;;;;5074349;28;20421;-77
2022/06/20 06:06:42;;;;;;;10.68;3.50;;;17.30;99.90;;;;;;5091259;28;20115;-77
2022/06/20 06:09:40;;;;;;;9.02;3.45;;;17.00;99.90;;;;;;5074248;28;20043;-77
2022/06/20 06:12:13;;;;;;;10.65;4.05;;;16.60;99.90;;;;;;5040043;28;20083;-77
2022/06/20 06:14:50;;;;;;;12.57;4.70;;;16.30;99.90;;;;;;5091121;28;20126;-78
2022/06/20 06:17:18;;;;;;;9.73;3.42;;;16.40;99.90;;;;;;5091061;28;20481;-76
2022/06/20 06:19:51;;;;;;;11.38;4.05;;;16.40;99.90;;;;;;5090597;28;20075;-77
2022/06/20 06:22:31;;;;;;;9.35;3.10;;;16.60;99.90;;;;;;5090718;28;20051;-76
2022/06/20 06:25:00;;;;;;;9.45;3.35;;;17.10;99.90;;;;;;5091006;28;20068;-77
2022/06/20 06:27:30;;;;;;;7.80;2.97;;;17.50;99.90;;;;;;5092121;28;20040;-77
2022/06/20 06:30:00;;;;;;;5.50;2.83;;;17.70;99.90;;;;;;5090965;28;20493;-77
2022/06/20 06:32:51;;;;;;;5.95;2.60;;;18.00;99.90;;;;;;5090995;28;20544;-77
2022/06/20 06:35:34;;;;;;;8.60;2.90;;;18.30;99.10;;;;;;5092114;28;20040;-76
2022/06/20 06:38:06;;;;;;;10.57;3.30;;;18.50;99.00;;;;;;5091984;28;20140;-78
2022/06/20 06:40:46;;;;;;;7.07;2.53;;;18.20;99.10;;;;;;5090298;28;20127;-77
2022/06/20 06:43:27;;;;;;;8.38;2.88;;;17.60;98.50;;;;;;5090659;28;20374;-77
2022/06/20 06:45:56;;;;;;;11.32;3.80;;;17.30;99.30;;;;;;5090704;28;20043;-77
2022/06/20 06:48:37;;;;;;;9.27;3.08;;;17.20;99.90;;;;;;5073605;28;20138;-77
2022/06/20 06:51:12;;;;;;;12.85;2.80;;;17.60;99.90;;;;;;5090244;28;20052;-77
2022/06/20 06:53:46;;;;;;;10.45;3.08;;;17.50;99.30;;;;;;5073821;28;20051;-77
2022/06/20 06:56:22;;;;;;;7.65;2.85;;;17.70;99.80;;;;;;5073941;28;20042;-78
2022/06/20 06:59:10;;;;;;;7.47;2.90;;;18.10;99.00;;;;;;5090604;28;20043;-76
2022/06/20 07:01:43;;;;;;;11.73;2.60;;;18.40;97.90;;;;;;5073477;28;20036;-77
2022/06/20 07:04:21;;;;;;;;;;;18.70;95.20;;;;;;5073961;28;20048;-77
2022/06/20 07:06:57;;;;;;;9.63;2.70;;;18.90;95.70;;;;;;5073525;28;19916;-77
2022/06/20 07:09:32;;;;;;;11.38;2.55;;;19.40;95.60;;;;;;5073366;28;20501;-77
2022/06/20 07:12:13;;;;;;;9.15;3.10;;;19.50;92.40;;;;;;5090398;28;20040;-77
2022/06/20 07:14:46;;;;;;;10.55;3.10;;;19.40;90.40;;;;;;5090345;28;20100;-77
2022/06/20 07:17:40;;;;;;;9.98;2.28;;;19.30;91.00;;;;;;5090302;28;20044;-77
2022/06/20 07:20:07;;;;;;;7.47;2.50;;;19.10;92.10;;;;;;5090133;28;20493;-78
2022/06/20 07:22:33;;;;;;;12.10;2.67;;;18.60;93.70;;;;;;5090232;28;20079;-78
2022/06/20 07:25:00;;;;;;;7.80;2.60;;;18.20;94.90;;;;;;5090339;28;20081;-78
2022/06/20 07:27:35;;;;;;;12.70;3.80;;;17.80;95.50;;;;;;5090232;28;20040;-77
2022/06/20 07:30:09;;;;;;;9.18;2.92;;;17.50;95.70;;;;;;5090085;28;20046;-77
2022/06/20 07:32:45;;;;;;;9.50;3.10;;;17.20;96.80;;;;;;5094087;28;20035;-77
2022/06/20 07:35:23;;;;;;;9.75;3.08;;;16.90;98.30;;;;;;5094419;28;20047;-77
2022/06/20 07:38:18;;;;;;;7.57;2.72;;;17.20;98.90;;;;;;5094098;28;20047;-77
2022/06/20 07:40:56;;;;;;;10.98;2.63;;;17.80;98.20;;;;;;5092212;28;20506;-77
2022/06/20 07:43:36;;;;;;;8.02;2.80;;;18.40;97.50;;;;;;5077315;28;20052;-77
2022/06/20 07:46:18;;;;;;;12.57;3.10;;;18.70;96.90;;;;;;5077040;28;20029;-77
2022/06/20 07:48:47;;;;;;;6.95;2.78;;;18.30;95.30;;;;;;5076801;28;20036;-76
2022/06/20 07:51:18;;;;;;;6.25;2.13;;;18.00;96.20;;;;;;5093417;28;20046;-77
2022/06/20 07:54:13;;;;;;;8.75;2.00;;;17.60;96.30;;;;;;5076914;28;20036;-77
2022/06/20 07:56:43;;;;;;;6.10;1.85;;;17.30;96.60;;;;;;5093687;28;20123;-78
2022/06/20 07:59:30;;;;;;;9.73;2.25;;;17.20;97.40;;;;;;5076564;28;20040;-75
2022/06/20 08:02:20;;;;;;;9.10;2.30;;;17.60;97.50;;;;;;5093416;28;20347;-76
2022/06/20 08:04:48;;;;;;;5.10;1.92;;;18.40;97.00;;;;;;5091783;28;20470;-75
2022/06/20 08:07:33;;;;;;;6.97;2.70;;;18.40;97.10;;;;;;5094311;28;20550;-75
2022/06/20 08:10:10;;;;;;;6.85;1.95;;;18.20;96.50;;;;;;5092211;28;20036;-75
2022/06/20 08:12:49;;;;;;;9.68;2.17;;;17.80;96.30;;;;;;5094233;28;20044;-76
2022/06/20 08:15:21;;;;;;;6.97;1.98;;;18.30;96.60;;;;;;5092588;28;20111;-75
2022/06/20 08:17:47;;;;;;;7.72;1.98;;;18.60;95.80;;;;;;5092354;28;20074;-75
2022/06/20 08:20:13;;;;;;;5.90;1.42;;;18.20;95.80;;;;;;5093272;28;20032;-76
2022/06/20 08:22:53;;;;;;;6.20;1.48;;;17.80;94.30;;;;;;5092320;28;20044;-76
2022/06/20 08:25:31;;;;;;;5.40;1.52;;;17.70;93.30;;;;;;5092347;28;20043;-76
2022/06/20 08:28:04;;;;;;;8.75;1.30;;;18.40;93.40;;;;;;5092482;28;20073;-76
2022/06/20 08:30:39;;;;;;;6.68;1.88;;;18.80;92.80;;;;;;5092081;28;20140;-76
2022/06/20 08:33:37;;;;;;;5.25;1.38;;;19.40;91.50;;;;;;5093358;28;20416;-75
2022/06/20 08:36:30;;;;;;;3.53;1.58;;;19.70;91.20;;;;;;5071795;28;20140;-75
2022/06/20 08:39:18;;;;;;;5.60;1.80;;;20.20;90.40;;;;;;5092754;28;20071;-75
2022/06/20 08:41:57;;;;;;;5.30;1.38;;;20.10;89.80;;;;;;5092614;28;20040;-75
2022/06/20 08:44:42;;;;;;;3.90;1.52;;;19.50;84.10;;;;;;5092884;28;20040;-76
2022/06/20 08:47:44;;;;;;;5.47;1.30;;;19.20;86.60;;;;;;5093834;28;20500;-75
2022/06/20 08:50:39;;;;;;;4.40;1.73;;;18.80;90.00;;;;;;5092390;28;20044;-75
2022/06/20 08:53:14;;;;;;;10.70;2.03;;;18.80;89.00;;;;;;5092965;28;20071;-76
2022/06/20 08:56:02;;;;;;;4.60;1.63;;;18.60;90.60;;;;;;5093781;28;20478;-76
2022/06/20 08:58:44;;;;;;;5.85;2.28;;;18.40;91.70;;;;;;5075172;28;20062;-74
2022/06/20 09:01:24;;;;;;;3.42;1.60;;;18.10;92.00;;;;;;5085225;28;20043;-75
2022/06/20 09:03:56;;;;;;;5.65;1.70;;;18.20;93.40;;;;;;5092328;28;20040;-75
2022/06/20 09:06:43;;;;;;;5.85;1.85;;;18.60;92.90;;;;;;5092497;28;20036;-75
2022/06/20 09:09:42;;;;;;;7.00;1.92;;;18.80;93.30;;;;;;5072135;28;20047;-76
2022/06/20 09:12:35;;;;;;;6.45;2.00;;;18.70;91.00;;;;;;5072999;28;20051;-74
2022/06/20 09:15:19;;;;;;;4.07;1.87;;;18.50;91.70;;;;;;5072232;28;20484;-75
2022/06/20 09:18:09;;;;;;;5.30;1.92;;;18.90;92.90;;;;;;5090197;28;20105;-75
2022/06/20 09:20:49;;;;;;;5.75;1.98;;;18.50;91.60;;;;;;5091094;28;20042;-74
2022/06/20 09:23:36;;;;;;;2.65;1.38;;;18.50;90.40;;;;;;5091518;28;20075;-74
2022/06/20 09:26:22;;;;;;;4.35;1.35;;;19.10;87.80;;;;;;5089668;28;20032;-75
2022/06/20 09:29:02;;;;;;;9.13;1.77;;;19.40;88.00;;;;;;5091447;28;20064;-75
2022/06/20 09:32:08;;;;;;;5.82;1.20;;;19.40;87.20;;;;;;5090130;28;20036;-74
2022/06/20 09:34:39;;;;;;;5.63;1.55;;;19.20;83.40;;;;;;5091502;28;20093;-75
2022/06/20 09:37:32;;;;;;;6.43;1.40;;;19.00;86.10;;;;;;5091942;28;20051;-75
2022/06/20 09:40:29;;;;;;;4.72;1.45;;;19.30;88.30;;;;;;5091390;28;20044;-75
2022/06/20 09:43:15;;;;;;;3.20;0.85;;;19.00;85.50;;;;;;5091697;28;20090;-74
2022/06/20 09:46:05;;;;;;;7.35;1.83;;;18.50;82.10;;;;;;5092698;28;20476;-75
2022/06/20 09:48:47;;;;;;;4.35;1.17;;;18.70;83.30;;;;;;5092965;28;20051;-74
2022/06/20 09:51:20;;;;;;;3.85;0.88;;;19.00;84.50;;;;;;5092013;28;20074;-74
2022/06/20 09:54:16;;;;;;;4.80;1.45;;;18.90;83.90;;;;;;5090383;28;20092;-75
2022/06/20 09:57:14;;;;;;;3.88;1.60;;;19.40;83.80;;;;;;5089182;28;20036;-74
2022/06/20 10:00:04;;;;;;;2.75;1.27;;;19.30;82.80;;;;;;5088814;28;20385;-75
2022/06/20 10:03:17;;;;;;;6.05;1.48;;;19.30;82.50;;;;;;5090046;28;20032;-76
2022/06/20 10:06:01;;;;;;;6.70;1.65;;;19.50;82.60;;;;;;5063927;28;20044;-74
2022/06/20 10:08:43;;;;;;;7.20;1.55;;;19.50;81.90;;;;;;5090686;28;20063;-75
2022/06/20 10:11:34;;;;;;;5.95;2.05;;;20.10;81.80;;;;;;5091193;28;20081;-74
2022/06/20 10:14:24;;;;;;;4.00;1.50;;;20.00;82.50;;;;;;5092496;28;20085;-74
2022/06/20 10:17:14;;;;;;;3.63;1.40;;;19.60;81.70;;;;;;5091316;28;20614;-74
2022/06/20 10:20:05;;;;;;;4.07;1.33;;;19.10;80.00;;;;;;5090835;28;20529;-74
2022/06/20 10:22:55;;;;;;;4.35;1.23;;;19.20;79.20;;;;;;5090407;28;20040;-74
2022/06/20 10:25:37;;;;;;;5.43;1.45;;;19.40;80.00;;;;;;5088391;28;20071;-75
2022/06/20 10:28:12;;;;;;;7.82;1.58;;;19.70;82.10;;;;;;5088345;28;20405;-75
2022/06/20 10:30:44;;;;;;;4.53;1.50;;;19.40;83.00;;;;;;5099405;22;20494;-69
2022/06/20 10:33:44;;;;;;;4.80;1.30;;;19.10;81.10;;;;;;5071666;28;20040;-70
2022/06/20 10:36:31;;;;;;;4.05;1.40;;;19.30;81.40;;;;;;5072236;28;20036;-70
2022/06/20 10:39:19;;;;;;;6.00;1.90;;;19.40;81.50;;;;;;5071867;28;20048;-71
2022/06/20 10:42:09;;;;;;;5.30;1.50;;;19.10;80.90;;;;;;5071566;28;20043;-71
2022/06/20 10:45:08;;;;;;;3.55;1.30;;;19.20;82.40;;;;;;5072016;28;20064;-71
2022/06/20 10:47:43;;;;;;;6.43;1.45;;;19.30;83.80;;;;;;5072043;28;20040;-70
2022/06/20 10:50:26;;;;;;;4.22;1.25;;;19.50;82.80;;;;;;5070497;28;20502;-71
2022/06/20 10:53:21;;;;;;;3.78;1.15;;;19.20;80.70;;;;;;5072088;28;20048;-71
2022/06/20 10:56:05;;;;;;;5.82;1.38;;;19.30;84.30;;;;;;5070781;28;20048;-70
2022/06/20 10:58:41;;;;;;;4.90;1.75;;;18.90;84.40;;;;;;5070366;28;20664;-70
2022/06/20 11:01:26;;;;;;;4.28;1.15;;;19.20;84.30;;;;;;5070224;28;20406;-70
2022/06/20 11:04:06;;;;;;;4.85;1.35;;;19.30;81.80;;;;;;5071712;28;20040;-71
2022/06/20 11:06:56;;;;;;;5.78;1.60;;;19.50;82.60;;;;;;5074030;28;20103;-71
2022/06/20 11:09:48;;;;;;;5.90;1.73;;;19.40;81.10;;;;;;5075744;28;20072;-70
2022/06/20 11:12:21;;;;;;;6.18;1.60;;;19.40;82.50;;;;;;5055686;28;20040;-71
2022/06/20 11:14:57;;;;;;;5.60;1.60;;;19.50;81.90;;;;;;5074362;28;20085;-71
2022/06/20 11:17:28;;;;;;;5.22;1.63;;;19.30;80.90;;;;;;5075317;28;20037;-72
2022/06/20 11:20:12;;;;;;;5.70;1.70;;;19.40;83.50;;;;;;5074465;28;20037;-72
2022/06/20 11:22:44;;;;;;;8.02;1.75;;;19.10;82.40;;;;;;5074868;28;20055;-72
2022/06/20 11:25:34;;;;;;;4.60;1.70;;;18.80;83.90;;;;;;5058390;28;20130;-71
2022/06/20 11:28:09;;;;;;;3.15;1.52;;;18.50;82.00;;;;;;5074727;28;20045;-72
2022/06/20 11:31:10;;;;;;;8.15;1.88;;;18.60;83.60;;;;;;5075307;28;20080;-71
2022/06/20 11:34:04;;;;;;;6.78;2.33;;;18.80;86.60;;;;;;5052985;28;20132;-72
2022/06/20 11:36:36;;;;;;;8.20;1.60;;;18.70;84.70;;;;;;5074090;28;20616;-72
2022/06/20 11:39:30;;;;;;;4.05;1.33;;;18.70;84.00;;;;;;5074283;28;20044;-72
2022/06/20 11:42:10;;;;;;;4.95;1.55;;;18.70;81.00;;;;;;5075333;28;20159;-72
2022/06/20 11:44:47;;;;;;;4.35;1.52;;;19.00;83.90;;;;;;5075397;28;20045;-73
2022/06/20 11:47:37;;;;;;;2.53;1.50;;;19.00;82.90;;;;;;5075436;28;20066;-72
2022/06/20 11:50:31;;;;;;;2.28;1.50;;;18.50;81.90;;;;;;5075102;28;20138;-72
2022/06/20 11:53:09;;;;;;;2.35;1.30;;;18.50;82.30;;;;;;5075394;28;20045;-72
2022/06/20 11:55:41;;;;;;;3.53;1.40;;;18.70;79.70;;;;;;5075559;28;20044;-73
2022/06/20 11:58:51;;;;;;;4.72;1.60;;;18.80;82.10;;;;;;5075294;28;20076;-72
2022/06/20 12:01:23;;;;;;;5.95;2.13;;;18.90;86.60;;;;;;5031915;28;20125;-72
2022/06/20 12:03:51;;;;;;;3.92;1.75;;;19.10;83.60;;;;;;5063393;28;20049;-73
2022/06/20 12:06:35;;;;;;;3.22;1.30;;;18.90;84.30;;;;;;5074796;28;20047;-72
2022/06/20 12:09:24;;;;;;;5.65;1.90;;;18.70;79.50;;;;;;5074713;28;20041;-72
2022/06/20 12:12:13;;;;;;;4.53;1.83;;;18.80;78.70;;;;;;5074167;28;20046;-73
2022/06/20 12:14:45;;;;;;;3.10;1.98;;;18.80;81.50;;;;;;5074728;28;20044;-72
2022/06/20 12:17:39;;;;;;;9.27;2.55;;;18.80;84.10;;;;;;5074060;28;20102;-73
2022/06/20 12:23:21;;;;;;;8.23;2.38;;;18.10;90.90;;;;;;5074677;28;20053;-72
2022/06/20 12:25:58;;;;;;;8.25;2.47;;;17.80;90.90;;;;;;5074522;28;20032;-73
2022/06/20 12:28:43;;;;;;;4.15;2.60;;;17.70;91.60;;;;;;5074259;28;20402;-72
2022/06/20 12:31:32;;;;;;;6.32;2.05;;;18.00;91.10;;;;;;5073879;28;20036;-72
2022/06/20 12:34:34;;;;;;;6.78;2.15;;;18.10;92.30;;;;;;5074184;28;20487;-72
2022/06/20 12:37:18;;;;;;;4.05;1.77;;;18.50;92.70;;;;;;5064786;28;20052;-73
2022/06/20 12:39:51;;;;;;;11.18;2.33;;;18.70;90.70;;;;;;5074179;28;20036;-73
2022/06/20 12:42:27;;;;;;;3.08;1.48;;;18.60;88.80;;;;;;5073821;28;20530;-73
2022/06/20 12:45:31;;;;;;;2.78;1.38;;;18.40;85.60;;;;;;5073956;28;20036;-72
2022/06/20 12:48:19;;;;;;;2.85;1.15;;;18.70;86.10;;;;;;5057644;28;20220;-72
2022/06/20 12:50:55;;;;;;;2.83;1.10;;;19.10;85.50;;;;;;5073006;28;20036;-72
2022/06/20 12:53:35;;;;;;;3.80;1.40;;;19.40;83.80;;;;;;5072242;28;20059;-72
2022/06/20 12:56:14;;;;;;;4.90;1.70;;;19.20;81.30;;;;;;5073104;28;20155;-72
2022/06/20 12:59:20;;;;;;;7.05;1.95;;;19.00;83.30;;;;;;5073220;28;20036;-73
2022/06/20 13:02:13;;;;;;;3.67;2.17;;;18.70;85.30;;;;;;5071212;28;20040;-71
2022/06/20 13:05:01;;;;;;;2.13;1.45;;;18.50;86.00;;;;;;5073587;28;20032;-72
2022/06/20 13:07:52;;;;;;;6.72;2.33;;;18.30;87.80;;;;;;5073005;28;20036;-72
2022/06/20 13:10:45;;;;;;;11.95;2.53;;;18.20;90.00;;;;;;5072766;28;20043;-72
2022/06/20 13:13:51;;;;;;;5.53;2.42;;;18.10;91.60;;;;;;5072678;28;20123;-72
2022/06/20 13:16:46;;;;;;;6.65;2.55;;;17.90;91.60;;;;;;5073295;28;20048;-72
2022/06/20 13:19:33;;;;;;;7.72;2.28;;;18.10;92.80;;;;;;5065324;28;20052;-72
2022/06/20 13:22:03;;;;;;;7.25;1.85;;;17.70;92.80;;;;;;5071988;28;20094;-71
2022/06/20 13:24:39;;;;;;;6.45;1.95;;;18.00;93.60;;;;;;5073481;28;20058;-72
2022/06/20 13:27:18;;;;;;;7.28;2.20;;;18.10;93.50;;;;;;5073280;28;20045;-71
2022/06/20 13:30:11;;;;;;;6.50;1.75;;;17.90;93.20;;;;;;5054468;28;20044;-72
2022/06/20 13:33:14;;;;;;;6.55;1.90;;;17.80;92.50;;;;;;5071667;28;20037;-72
2022/06/20 13:36:00;;;;;;;4.95;1.80;;;18.00;93.80;;;;;;5073106;28;20055;-72
2022/06/20 13:38:43;;;;;;;3.60;1.83;;;18.30;92.90;;;;;;5071358;28;20047;-72
2022/06/20 13:41:12;;;;;;;4.30;2.00;;;18.80;92.60;;;;;;5057502;28;20047;-72
2022/06/20 13:44:04;;;;;;;5.47;1.65;;;18.80;91.90;;;;;;5069691;28;20102;-73
2022/06/20 13:46:47;;;;;;;3.05;1.63;;;18.70;89.90;;;;;;5070248;28;20517;-72
2022/06/20 13:49:26;;;;;;;5.53;1.60;;;18.80;89.10;;;;;;5071601;28;20037;-72
2022/06/20 13:51:55;;;;;;;5.25;2.40;;;19.10;88.90;;;;;;5072325;28;20440;-72
2022/06/20 13:54:44;;;;;;;3.63;1.48;;;19.30;91.10;;;;;;5072924;28;20407;-72